CheckWX is a tool to help pilots better visualize weather data.  It is not intended as a substitute for an official pre-flight weather briefing.

21:03:30 UTC

KLHB METAR
Hearne Municipal Airport
Hearne, Texas, USA
Current

9 mins ago

KLHB 232055Z AUTO 14013G17KT 10SM SCT044 BKN050 BKN070 32/24 A2995 RMK AO2 T03160242
Observed
May-23 @ 20:55 UTC
Wind
  • 140° at 13 KTS
  • Gusting to 17 KTS
Visibility
10 SM
Flight Rules
VFR
Cloud Levels
  • Scattered at 4,400' AGL
  • Broken at 5,000' AGL
  • Broken at 7,000' AGL
Temperature
32°C / 90°F
Dewpoint
24°C / 75°F
Heat Index
38°C / 101°F
Humidity
63%
Altimeter
29.95" Hg
Pressure
1014.22 hPa
Previous

29 mins ago

KLHB 232035Z AUTO 14014G19KT 10SM SCT046 SCT070 33/24 A2996 RMK AO2 T03250238
Observed
May-23 @ 20:35 UTC
Wind
  • 140° at 14 KTS
  • Gusting to 19 KTS
Visibility
10 SM
Flight Rules
VFR
Cloud Levels
  • Scattered at 4,600' AGL
  • Scattered at 7,000' AGL
Temperature
33°C / 91°F
Dewpoint
24°C / 75°F
Heat Index
39°C / 102°F
Humidity
59%
Altimeter
29.96" Hg
Pressure
1014.52 hPa
Previous

2 hours ago

KLHB 231915Z AUTO 15011G19KT 10SM SCT044 SCT065 32/24 A2998 RMK AO2 T03180239
Observed
May-23 @ 19:15 UTC
Wind
  • 150° at 11 KTS
  • Gusting to 19 KTS
Visibility
10 SM
Flight Rules
VFR
Cloud Levels
  • Scattered at 4,400' AGL
  • Scattered at 6,500' AGL
Temperature
32°C / 90°F
Dewpoint
24°C / 75°F
Heat Index
38°C / 101°F
Humidity
63%
Altimeter
29.98" Hg
Pressure
1015.22 hPa